DLH1EE EDDM-EDDF
Flight info
| Callsign | DLH1EE |
|---|---|
| Flight time | 0h 29m |
| Altitude | 24000 |
| Route | GIVMI1N GIVMI Y101 ERNAS T161 DEBHI DEBHI1B |
| Aircraft | B789/H-SDE1E2E3FGHIJ2J3J4J5M1RWXY/LB1D1 |
Departure
| Time | 2026-04-16 13:33 |
|---|---|
| Airport | Munich Airport (EDDM) |
Arrival
| Time | 2026-04-16 14:03 |
|---|---|
| Airport | Frankfurt Main Airport (EDDF) |
| Time | Latitude | Longitude | Altitude | Speed | Heading |
|---|---|---|---|---|---|
| 2026-04-16 13:33 | 48.38262 | 11.87784 | 6645 ft | 263 kts | 343° |
| 2026-04-16 13:33 | 48.39791 | 11.86407 | 7729 ft | 265 kts | 317° |
| 2026-04-16 13:33 | 48.41078 | 11.84374 | 8863 ft | 269 kts | 311° |
| 2026-04-16 13:33 | 48.42312 | 11.82234 | 10021 ft | 274 kts | 311° |
| 2026-04-16 13:34 | 48.43644 | 11.80136 | 11059 ft | 279 kts | 315° |
| 2026-04-16 13:34 | 48.45035 | 11.78079 | 12105 ft | 284 kts | 315° |
| 2026-04-16 13:34 | 48.46444 | 11.75962 | 13177 ft | 287 kts | 314° |
| 2026-04-16 13:34 | 48.47853 | 11.73799 | 14252 ft | 291 kts | 313° |
| 2026-04-16 13:35 | 48.49262 | 11.71635 | 15184 ft | 295 kts | 313° |
| 2026-04-16 13:35 | 48.50712 | 11.69419 | 16166 ft | 298 kts | 313° |
| 2026-04-16 13:35 | 48.52178 | 11.67180 | 17116 ft | 301 kts | 313° |
| 2026-04-16 13:35 | 48.53660 | 11.64911 | 18092 ft | 305 kts | 313° |
| 2026-04-16 13:36 | 48.55163 | 11.62606 | 18979 ft | 308 kts | 313° |
| 2026-04-16 13:36 | 48.56659 | 11.60310 | 19806 ft | 311 kts | 313° |
| 2026-04-16 13:36 | 48.58102 | 11.57821 | 20245 ft | 326 kts | 308° |
| 2026-04-16 13:36 | 48.59638 | 11.55092 | 20267 ft | 355 kts | 309° |
| 2026-04-16 13:37 | 48.61308 | 11.52155 | 20335 ft | 381 kts | 309° |
| 2026-04-16 13:37 | 48.63036 | 11.49095 | 21097 ft | 384 kts | 309° |
| 2026-04-16 13:37 | 48.64771 | 11.46002 | 21828 ft | 388 kts | 309° |
| 2026-04-16 13:37 | 48.65951 | 11.43896 | 22311 ft | 390 kts | 309° |
| 2026-04-16 13:38 | 48.67699 | 11.40783 | 23014 ft | 394 kts | 309° |
| 2026-04-16 13:38 | 48.69502 | 11.37639 | 23662 ft | 398 kts | 313° |
| 2026-04-16 13:38 | 48.71649 | 11.34932 | 24212 ft | 403 kts | 324° |
| 2026-04-16 13:38 | 48.73989 | 11.32556 | 24763 ft | 405 kts | 324° |
| 2026-04-16 13:39 | 48.76353 | 11.30164 | 25207 ft | 411 kts | 324° |
| 2026-04-16 13:39 | 48.78683 | 11.27812 | 25920 ft | 407 kts | 324° |
| 2026-04-16 13:39 | 48.81028 | 11.25436 | 26682 ft | 404 kts | 324° |
| 2026-04-16 13:39 | 48.83359 | 11.23065 | 27419 ft | 401 kts | 323° |
| 2026-04-16 13:40 | 48.85518 | 11.20475 | 28143 ft | 395 kts | 315° |
| 2026-04-16 13:40 | 48.87545 | 11.17654 | 28837 ft | 393 kts | 316° |
| 2026-04-16 13:40 | 48.89554 | 11.14875 | 29571 ft | 390 kts | 316° |
| 2026-04-16 13:40 | 48.91556 | 11.12086 | 30209 ft | 390 kts | 316° |
| 2026-04-16 13:41 | 48.93588 | 11.09244 | 30234 ft | 399 kts | 316° |
| 2026-04-16 13:41 | 48.97657 | 11.03566 | 30241 ft | 395 kts | 315° |
| 2026-04-16 13:42 | 49.01698 | 10.97893 | 30239 ft | 393 kts | 315° |
| 2026-04-16 13:42 | 49.05713 | 10.92252 | 30245 ft | 392 kts | 315° |
| 2026-04-16 13:43 | 49.09700 | 10.86633 | 30247 ft | 393 kts | 315° |
| 2026-04-16 13:43 | 49.13726 | 10.80939 | 30259 ft | 394 kts | 315° |
| 2026-04-16 13:44 | 49.17712 | 10.75295 | 29965 ft | 383 kts | 315° |
| 2026-04-16 13:44 | 49.19663 | 10.72510 | 29100 ft | 385 kts | 313° |
| 2026-04-16 13:44 | 49.21511 | 10.69587 | 28638 ft | 379 kts | 312° |
| 2026-04-16 13:44 | 49.27229 | 10.60622 | 27019 ft | 380 kts | 312° |
| 2026-04-16 13:45 | 49.30931 | 10.54763 | 25896 ft | 384 kts | 312° |
| 2026-04-16 13:45 | 49.34707 | 10.48797 | 24704 ft | 391 kts | 312° |
| 2026-04-16 13:45 | 49.38015 | 10.42241 | 23758 ft | 389 kts | 304° |
| 2026-04-16 13:45 | 49.41207 | 10.35471 | 22970 ft | 392 kts | 304° |
| 2026-04-16 13:46 | 49.44304 | 10.28587 | 22209 ft | 390 kts | 303° |
| 2026-04-16 13:46 | 49.47414 | 10.21772 | 21458 ft | 388 kts | 304° |
| 2026-04-16 13:46 | 49.50453 | 10.15061 | 20726 ft | 385 kts | 303° |
| 2026-04-16 13:46 | 49.53873 | 10.08762 | 20004 ft | 383 kts | 317° |
| 2026-04-16 13:47 | 49.58468 | 10.04661 | 19255 ft | 386 kts | 332° |
| 2026-04-16 13:47 | 49.63302 | 10.01133 | 18514 ft | 382 kts | 331° |
| 2026-04-16 13:47 | 49.68046 | 9.97490 | 17751 ft | 377 kts | 331° |
| 2026-04-16 13:47 | 49.72719 | 9.93893 | 16745 ft | 377 kts | 328° |
| 2026-04-16 13:48 | 49.77187 | 9.89894 | 16114 ft | 367 kts | 328° |
| 2026-04-16 13:48 | 49.81618 | 9.86004 | 15539 ft | 364 kts | 328° |
| 2026-04-16 13:48 | 49.85951 | 9.82165 | 14984 ft | 361 kts | 328° |
| 2026-04-16 13:48 | 49.90333 | 9.78370 | 14425 ft | 359 kts | 330° |
| 2026-04-16 13:49 | 49.94757 | 9.74737 | 13854 ft | 357 kts | 330° |
| 2026-04-16 13:49 | 49.99138 | 9.71128 | 13286 ft | 354 kts | 330° |
| 2026-04-16 13:49 | 50.03085 | 9.66700 | 12763 ft | 351 kts | 319° |
| 2026-04-16 13:49 | 50.06783 | 9.62119 | 12313 ft | 323 kts | 320° |
| 2026-04-16 13:50 | 50.10129 | 9.58052 | 11812 ft | 295 kts | 320° |
| 2026-04-16 13:50 | 50.13249 | 9.54214 | 11358 ft | 271 kts | 320° |
| 2026-04-16 13:50 | 50.16104 | 9.50708 | 10745 ft | 258 kts | 319° |
| 2026-04-16 13:50 | 50.17727 | 9.48711 | 10402 ft | 252 kts | 319° |
| 2026-04-16 13:51 | 50.19094 | 9.47027 | 10104 ft | 247 kts | 319° |
| 2026-04-16 13:51 | 50.20441 | 9.45368 | 9797 ft | 242 kts | 319° |
| 2026-04-16 13:51 | 50.21721 | 9.43791 | 9587 ft | 234 kts | 319° |
| 2026-04-16 13:51 | 50.22979 | 9.42239 | 9353 ft | 227 kts | 319° |
| 2026-04-16 13:52 | 50.23961 | 9.40422 | 9065 ft | 220 kts | 285° |
| 2026-04-16 13:52 | 50.24073 | 9.39046 | 8876 ft | 218 kts | 264° |
| 2026-04-16 13:52 | 50.23927 | 9.37890 | 8716 ft | 217 kts | 252° |
| 2026-04-16 13:52 | 50.23652 | 9.36788 | 8532 ft | 217 kts | 246° |
| 2026-04-16 13:53 | 50.23333 | 9.35719 | 8361 ft | 217 kts | 246° |
| 2026-04-16 13:53 | 50.23027 | 9.34650 | 8186 ft | 218 kts | 248° |
| 2026-04-16 13:53 | 50.22729 | 9.33538 | 7987 ft | 220 kts | 249° |
| 2026-04-16 13:53 | 50.22451 | 9.32436 | 7791 ft | 221 kts | 250° |
| 2026-04-16 13:54 | 50.22176 | 9.31314 | 7612 ft | 222 kts | 250° |
| 2026-04-16 13:54 | 50.21577 | 9.28846 | 7212 ft | 223 kts | 250° |
| 2026-04-16 13:54 | 50.20451 | 9.24306 | 6461 ft | 225 kts | 250° |
| 2026-04-16 13:54 | 50.19676 | 9.21188 | 5933 ft | 216 kts | 250° |
| 2026-04-16 13:55 | 50.19146 | 9.19062 | 5622 ft | 202 kts | 250° |
| 2026-04-16 13:55 | 50.18649 | 9.17067 | 5433 ft | 194 kts | 249° |
| 2026-04-16 13:55 | 50.18124 | 9.15188 | 5242 ft | 188 kts | 240° |
| 2026-04-16 13:55 | 50.17526 | 9.13399 | 5017 ft | 187 kts | 253° |
| 2026-04-16 13:56 | 50.17166 | 9.11461 | 4829 ft | 184 kts | 250° |
| 2026-04-16 13:56 | 50.16681 | 9.09640 | 4693 ft | 177 kts | 250° |
| 2026-04-16 13:56 | 50.16265 | 9.07878 | 4558 ft | 170 kts | 250° |
| 2026-04-16 13:56 | 50.15857 | 9.06170 | 4475 ft | 166 kts | 250° |
| 2026-04-16 13:57 | 50.15367 | 9.04117 | 4467 ft | 169 kts | 250° |
| 2026-04-16 13:57 | 50.14547 | 9.00679 | 4470 ft | 170 kts | 250° |
| 2026-04-16 13:57 | 50.13743 | 8.97307 | 4456 ft | 169 kts | 250° |
| 2026-04-16 13:58 | 50.12100 | 8.90427 | 4474 ft | 171 kts | 250° |
| 2026-04-16 13:58 | 50.11269 | 8.86948 | 4162 ft | 171 kts | 250° |
| 2026-04-16 13:58 | 50.10445 | 8.83498 | 3700 ft | 166 kts | 250° |
| 2026-04-16 13:58 | 50.09663 | 8.80222 | 3267 ft | 156 kts | 249° |
| 2026-04-16 13:59 | 50.08937 | 8.77179 | 2860 ft | 145 kts | 249° |
| 2026-04-16 13:59 | 50.08433 | 8.75076 | 2572 ft | 134 kts | 250° |
| 2026-04-16 13:59 | 50.08114 | 8.73739 | 2406 ft | 135 kts | 249° |
| 2026-04-16 13:59 | 50.07783 | 8.72347 | 2225 ft | 133 kts | 249° |
| 2026-04-16 14:00 | 50.07465 | 8.71017 | 2062 ft | 132 kts | 250° |
| 2026-04-16 14:00 | 50.07145 | 8.69683 | 1871 ft | 129 kts | 249° |
| 2026-04-16 14:00 | 50.06829 | 8.68355 | 1707 ft | 134 kts | 249° |
| 2026-04-16 14:00 | 50.06499 | 8.67008 | 1511 ft | 131 kts | 249° |
| 2026-04-16 14:01 | 50.06180 | 8.65678 | 1341 ft | 134 kts | 249° |
| 2026-04-16 14:01 | 50.05846 | 8.64309 | 1143 ft | 135 kts | 247° |
| 2026-04-16 14:01 | 50.05521 | 8.62974 | 943 ft | 134 kts | 248° |
| 2026-04-16 14:01 | 50.05202 | 8.61583 | 776 ft | 135 kts | 249° |
| 2026-04-16 14:02 | 50.04881 | 8.60224 | 584 ft | 137 kts | 248° |
| 2026-04-16 14:02 | 50.04553 | 8.58841 | 388 ft | 134 kts | 247° |
| 2026-04-16 14:02 | 50.04256 | 8.57562 | 355 ft | 118 kts | 246° |
| 2026-04-16 14:02 | 50.04017 | 8.56620 | 358 ft | 61 kts | 249° |
| 2026-04-16 14:03 | 50.04005 | 8.56262 | 357 ft | 24 kts | 282° |
| 2026-04-16 14:03 | 50.04020 | 8.56143 | 355 ft | 0 kts | 282° |
| 2026-04-16 14:03 | 50.04022 | 8.56126 | 361 ft | 9 kts | 278° |
| 2026-04-16 14:04 | 50.04064 | 8.56002 | 363 ft | 17 kts | 320° |
| 2026-04-16 14:04 | 50.04184 | 8.55920 | 359 ft | 21 kts | 341° |
| 2026-04-16 14:04 | 50.04270 | 8.55953 | 364 ft | 12 kts | 23° |
| 2026-04-16 14:04 | 50.04316 | 8.55946 | 362 ft | 8 kts | 338° |
| 2026-04-16 14:05 | 50.04410 | 8.55909 | 360 ft | 19 kts | 360° |
| 2026-04-16 14:05 | 50.04516 | 8.55954 | 365 ft | 15 kts | 20° |
| 2026-04-16 14:05 | 50.04588 | 8.55975 | 368 ft | 4 kts | 345° |
| 2026-04-16 14:05 | 50.04630 | 8.55951 | 367 ft | 9 kts | 340° |